Time;durP1;ratioP1;P1;durP2;ratioP2;P2;SDS_P1;SDS_P2;PMS_P1;PMS_P2;Temp;Humidity;BMP_temperature;BMP_pressure;BME280_temperature;BME280_humidity;BME280_pressure;Samples;Min_cycle;Max_cycle;Signal;HPM_P1;HPM_P2
2022/06/08 00:00:16;;;;;;;;;;;;;;;23.39;54.94;99579.28;2077001;28;20011;-46
2022/06/08 00:01:18;;;;;;;;;;;;;;;23.39;54.96;99577.38;2087550;28;20204;-47
2022/06/08 00:02:19;;;;;;;;;;;;;;;23.39;55.09;99577.38;2088443;28;20046;-46
2022/06/08 00:03:21;;;;;;;;;;;;;;;23.39;54.93;99576.53;2079688;28;20342;-45
2022/06/08 00:04:24;;;;;;;;;;;;;;;23.39;55.00;99582.03;2083461;28;19958;-49
2022/06/08 00:05:25;;;;;;;;;;;;;;;23.39;54.89;99571.88;2082410;28;20392;-47
2022/06/08 00:06:25;;;;;;;;;;;;;;;23.40;54.87;99572.75;2085331;28;19920;-47
2022/06/08 00:07:25;;;;;;;;;;;;;;;23.39;54.86;99577.38;2085558;28;20186;-47
2022/06/08 00:08:26;;;;;;;;;;;;;;;23.39;54.89;99574.63;2084090;28;19913;-46
2022/06/08 00:09:26;;;;;;;;;;;;;;;23.40;55.06;99561.75;2085317;28;19913;-46
2022/06/08 00:10:27;;;;;;;;;;;;;;;23.39;54.94;99571.88;2086111;28;20007;-46
2022/06/08 00:11:27;;;;;;;;;;;;;;;23.38;55.09;99556.44;2085097;28;20327;-46
2022/06/08 00:12:27;;;;;;;;;;;;;;;23.39;54.88;99558.13;2085279;28;20013;-45
2022/06/08 00:13:28;;;;;;;;;;;;;;;23.39;55.11;99555.38;2085469;28;19917;-45
2022/06/08 00:14:28;;;;;;;;;;;;;;;23.37;54.90;99549.22;2083167;28;20368;-45
2022/06/08 00:15:28;;;;;;;;;;;;;;;23.38;54.92;99547.31;2091746;28;19963;-45
2022/06/08 00:16:29;;;;;;;;;;;;;;;23.37;54.95;99551.97;2077717;28;20330;-45
2022/06/08 00:17:29;;;;;;;;;;;;;;;23.37;54.82;99551.97;2074551;28;19928;-45
2022/06/08 00:18:29;;;;;;;;;;;;;;;23.36;55.02;99544.75;2088271;28;19913;-45
2022/06/08 00:19:30;;;;;;;;;;;;;;;23.37;55.02;99545.59;2084486;28;19920;-47
2022/06/08 00:20:30;;;;;;;;;;;;;;;23.37;55.01;99546.47;2088711;28;19913;-47
2022/06/08 00:21:30;;;;;;;;;;;;;;;23.38;55.03;99541.81;2082625;28;19916;-46
2022/06/08 00:22:30;;;;;;;;;;;;;;;23.37;55.01;99543.72;2083982;28;20306;-47
2022/06/08 00:23:31;;;;;;;;;;;;;;;23.37;55.05;99546.47;2077563;28;19917;-46
2022/06/08 00:24:31;;;;;;;;;;;;;;;23.36;54.94;99544.75;2081318;28;19920;-45
2022/06/08 00:25:31;;;;;;;;;;;;;;;23.37;55.01;99540.97;2085591;28;19913;-47
2022/06/08 00:26:32;;;;;;;;;;;;;;;23.36;55.06;99538.41;2088409;28;20397;-45
2022/06/08 00:27:32;;;;;;;;;;;;;;;23.36;54.95;99535.66;2081997;28;19987;-47
2022/06/08 00:28:33;;;;;;;;;;;;;;;23.36;55.03;99533.75;2084019;28;20337;-46
2022/06/08 00:29:33;;;;;;;;;;;;;;;23.37;54.96;99529.97;2087562;28;19920;-47
2022/06/08 00:30:33;;;;;;;;;;;;;;;23.37;54.87;99535.47;2087219;28;19922;-49
2022/06/08 00:31:34;;;;;;;;;;;;;;;23.37;54.92;99534.59;2087941;28;19920;-46
2022/06/08 00:32:34;;;;;;;;;;;;;;;23.37;55.01;99531.84;2089095;28;19916;-46
2022/06/08 00:33:35;;;;;;;;;;;;;;;23.36;54.98;99528.25;2086086;28;19919;-47
2022/06/08 00:34:35;;;;;;;;;;;;;;;23.37;54.94;99529.97;2079999;28;19912;-47
2022/06/08 00:35:36;;;;;;;;;;;;;;;23.36;54.92;99533.75;2083806;28;20491;-47
2022/06/08 00:36:36;;;;;;;;;;;;;;;23.37;54.96;99535.47;2081167;28;19935;-47
2022/06/08 00:37:36;;;;;;;;;;;;;;;23.37;54.95;99540.97;2082878;28;20008;-47
2022/06/08 00:38:37;;;;;;;;;;;;;;;23.38;55.09;99542.69;2086405;28;19920;-45
2022/06/08 00:39:37;;;;;;;;;;;;;;;23.37;55.03;99535.47;2087320;28;20310;-48
2022/06/08 00:40:56;;;;;;;;;;;;;;;23.37;55.03;99540.97;2084705;28;19912;-47
2022/06/08 00:42:00;;;;;;;;;;;;;;;23.37;55.02;99535.47;2086314;28;19912;-48
2022/06/08 00:43:01;;;;;;;;;;;;;;;23.37;55.05;99529.97;2087044;28;20463;-46
2022/06/08 00:44:03;;;;;;;;;;;;;;;23.37;54.95;99529.97;2085459;28;19995;-46
2022/06/08 00:45:08;;;;;;;;;;;;;;;23.38;54.90;99530.81;2083417;28;20293;-46
2022/06/08 00:46:09;;;;;;;;;;;;;;;23.36;55.07;99525.50;2076907;28;19920;-44
2022/06/08 00:47:12;;;;;;;;;;;;;;;23.37;55.04;99524.47;2084379;28;19923;-48
2022/06/08 00:48:12;;;;;;;;;;;;;;;23.37;55.05;99527.22;2085781;28;19984;-46
2022/06/08 00:49:25;;;;;;;;;;;;;;;23.36;55.14;99525.50;2086952;28;19910;-45
2022/06/08 00:50:29;;;;;;;;;;;;;;;23.36;55.18;99520.00;2090923;28;20295;-47
2022/06/08 00:51:29;;;;;;;;;;;;;;;23.35;55.06;99515.56;2082620;28;20284;-46
2022/06/08 00:52:29;;;;;;;;;;;;;;;23.36;55.07;99517.25;2085400;28;20013;-46
2022/06/08 00:53:32;;;;;;;;;;;;;;;23.36;55.06;99510.91;2083473;28;19952;-46
2022/06/08 00:54:34;;;;;;;;;;;;;;;23.35;54.97;99512.81;2076073;28;20322;-47
2022/06/08 00:55:36;;;;;;;;;;;;;;;23.35;54.76;99504.56;2079312;28;19921;-48
2022/06/08 00:56:38;;;;;;;;;;;;;;;23.36;54.91;99506.25;2091691;28;20097;-45
2022/06/08 00:57:39;;;;;;;;;;;;;;;23.35;54.92;99501.81;2094904;28;19922;-49
2022/06/08 00:58:39;;;;;;;;;;;;;;;23.35;54.91;99493.56;2095785;28;19987;-47
2022/06/08 00:59:45;;;;;;;;;;;;;;;23.35;54.95;99499.06;2092154;28;20321;-46
2022/06/08 01:00:45;;;;;;;;;;;;;;;23.33;55.16;99491.00;2093891;28;19917;-46
2022/06/08 01:01:45;;;;;;;;;;;;;;;23.35;54.94;99490.81;2087316;28;19924;-46
2022/06/08 01:02:46;;;;;;;;;;;;;;;23.33;54.99;99485.50;2085711;28;19966;-46
2022/06/08 01:03:46;;;;;;;;;;;;;;;23.34;54.95;99491.84;2086729;28;19916;-46
2022/06/08 01:04:46;;;;;;;;;;;;;;;23.33;54.93;99484.66;2086958;28;19912;-46
2022/06/08 01:05:46;;;;;;;;;;;;;;;23.35;55.03;99488.06;2086484;28;20306;-46
2022/06/08 01:06:51;;;;;;;;;;;;;;;23.35;55.02;99493.56;2086815;28;19919;-45
2022/06/08 01:07:53;;;;;;;;;;;;;;;23.35;55.01;99487.19;2085894;28;20334;-49
2022/06/08 01:08:54;;;;;;;;;;;;;;;23.35;55.05;99487.19;2085562;28;19924;-46
2022/06/08 01:09:54;;;;;;;;;;;;;;;23.35;54.92;99488.06;2088569;28;20280;-46
2022/06/08 01:10:56;;;;;;;;;;;;;;;23.35;55.05;99493.56;2085405;28;19924;-45
2022/06/08 01:11:58;;;;;;;;;;;;;;;23.35;54.97;99493.56;2086352;28;19913;-47
2022/06/08 01:13:04;;;;;;;;;;;;;;;23.36;54.99;99495.25;2084837;28;19939;-48
2022/06/08 01:14:06;;;;;;;;;;;;;;;23.36;55.02;99489.75;2080313;28;20374;-46
2022/06/08 01:15:07;;;;;;;;;;;;;;;23.36;54.99;99488.91;2076136;28;20397;-46
2022/06/08 01:16:09;;;;;;;;;;;;;;;23.35;54.98;99488.06;2079092;28;19913;-46
2022/06/08 01:17:11;;;;;;;;;;;;;;;23.35;55.11;99488.06;2086707;28;20373;-46
2022/06/08 01:18:12;;;;;;;;;;;;;;;23.36;55.11;99487.00;2082101;28;19982;-46
2022/06/08 01:19:12;;;;;;;;;;;;;;;23.34;55.19;99491.84;2078896;28;20211;-46
2022/06/08 01:20:12;;;;;;;;;;;;;;;23.35;55.07;99490.81;2087284;28;20338;-46
2022/06/08 01:21:22;;;;;;;;;;;;;;;23.35;55.08;99481.69;2082734;28;19920;-46
2022/06/08 01:22:23;;;;;;;;;;;;;;;23.35;55.03;99487.19;2078109;28;20429;-45
2022/06/08 01:23:23;;;;;;;;;;;;;;;23.36;55.12;99480.66;2078351;28;19905;-46
2022/06/08 01:24:25;;;;;;;;;;;;;;;23.34;55.13;99475.34;2079039;28;20804;-46
2022/06/08 01:25:30;;;;;;;;;;;;;;;23.33;55.06;99474.50;2077100;28;19992;-46
2022/06/08 01:26:49;;;;;;;;;;;;;;;23.34;55.18;99469.84;2083943;28;19919;-49
2022/06/08 01:27:49;;;;;;;;;;;;;;;23.34;55.00;99475.34;2082693;28;19923;-46
2022/06/08 01:29:01;;;;;;;;;;;;;;;23.32;55.22;99470.06;2077964;28;19919;-46
2022/06/08 01:30:08;;;;;;;;;;;;;;;23.32;55.08;99472.81;2086188;28;19943;-46
2022/06/08 01:31:32;;;;;;;;;;;;;;;23.33;55.11;99466.25;2085603;28;19923;-45
2022/06/08 01:32:33;;;;;;;;;;;;;;;23.32;55.07;99467.31;2074907;28;19958;-46
2022/06/08 01:33:46;;;;;;;;;;;;;;;23.32;55.13;99463.66;2072399;28;20230;-46
2022/06/08 01:34:46;;;;;;;;;;;;;;;23.32;55.15;99460.91;2084454;28;20239;-46
2022/06/08 01:36:02;;;;;;;;;;;;;;;23.32;55.16;99460.91;2093329;28;19916;-46
2022/06/08 01:37:02;;;;;;;;;;;;;;;23.32;55.15;99455.44;2086530;28;20510;-46
2022/06/08 01:38:22;;;;;;;;;;;;;;;23.32;55.07;99455.44;2085031;28;19917;-47
2022/06/08 01:39:40;;;;;;;;;;;;;;;23.32;55.11;99455.44;2081617;28;19944;-50
2022/06/08 01:41:02;;;;;;;;;;;;;;;23.32;55.11;99452.69;2084658;28;19917;-46
2022/06/08 01:42:13;;;;;;;;;;;;;;;23.33;55.29;99448.91;2074281;28;19951;-46
2022/06/08 01:43:25;;;;;;;;;;;;;;;23.32;54.93;99447.19;2079021;28;19917;-46
2022/06/08 01:44:29;;;;;;;;;;;;;;;23.32;55.06;99438.94;2079064;28;19920;-47
2022/06/08 01:45:43;;;;;;;;;;;;;;;23.33;55.07;99437.91;2090999;28;19924;-49
2022/06/08 01:47:02;;;;;;;;;;;;;;;23.33;55.16;99443.41;2077175;28;19928;-45
2022/06/08 01:48:05;;;;;;;;;;;;;;;23.31;54.94;99438.09;2079102;28;19917;-45
2022/06/08 01:49:24;;;;;;;;;;;;;;;23.32;54.97;99434.31;2084830;28;19920;-46
2022/06/08 01:50:35;;;;;;;;;;;;;;;23.32;55.15;99436.16;2086760;28;19920;-46
2022/06/08 01:51:36;;;;;;;;;;;;;;;23.31;55.07;99431.72;2085502;28;20295;-46
2022/06/08 01:52:53;;;;;;;;;;;;;;;23.32;55.16;99436.16;2087284;28;20000;-46
2022/06/08 01:53:53;;;;;;;;;;;;;;;23.31;55.07;99432.59;2080340;28;19905;-47
2022/06/08 01:55:05;;;;;;;;;;;;;;;23.33;55.00;99432.41;2081658;28;19917;-45
2022/06/08 01:56:18;;;;;;;;;;;;;;;23.32;54.99;99427.94;2087109;28;19913;-45
2022/06/08 01:57:19;;;;;;;;;;;;;;;23.32;54.99;99430.69;2086293;28;19923;-45
2022/06/08 01:58:25;;;;;;;;;;;;;;;23.32;55.02;99433.44;2085474;28;19921;-46
2022/06/08 01:59:33;;;;;;;;;;;;;;;23.32;55.16;99425.19;2086406;28;19921;-46
2022/06/08 02:00:35;;;;;;;;;;;;;;;23.31;55.11;99431.72;2087704;28;19912;-46
2022/06/08 02:01:49;;;;;;;;;;;;;;;23.31;55.14;99432.59;2085522;28;20349;-47
2022/06/08 02:02:50;;;;;;;;;;;;;;;23.30;55.18;99425.38;2092066;28;20007;-47
2022/06/08 02:04:09;;;;;;;;;;;;;;;23.30;55.08;99425.38;2085580;28;19965;-46
2022/06/08 02:05:21;;;;;;;;;;;;;;;23.30;55.14;99424.53;2083930;28;20214;-48
2022/06/08 02:06:25;;;;;;;;;;;;;;;23.31;55.03;99420.75;2088787;28;20047;-49
2022/06/08 02:07:34;;;;;;;;;;;;;;;23.30;55.09;99419.88;2091926;28;20401;-46
2022/06/08 02:08:34;;;;;;;;;;;;;;;23.30;55.22;99413.53;2076974;28;19924;-46
2022/06/08 02:09:37;;;;;;;;;;;;;;;23.30;55.16;99408.88;2076301;28;19939;-46
2022/06/08 02:10:46;;;;;;;;;;;;;;;23.30;55.17;99413.53;2086287;28;19939;-47
2022/06/08 02:11:46;;;;;;;;;;;;;;;23.29;55.16;99418.16;2091853;28;20535;-47
2022/06/08 02:12:51;;;;;;;;;;;;;;;23.29;55.17;99411.81;2088622;28;19909;-47
2022/06/08 02:13:54;;;;;;;;;;;;;;;23.29;55.12;99409.91;2096662;28;19919;-46
2022/06/08 02:14:58;;;;;;;;;;;;;;;23.30;55.27;99406.13;2081950;28;20015;-45
2022/06/08 02:16:03;;;;;;;;;;;;;;;23.29;55.08;99412.66;2086583;28;19916;-45
2022/06/08 02:17:08;;;;;;;;;;;;;;;23.30;55.15;99413.53;2086761;28;19924;-46
2022/06/08 02:18:20;;;;;;;;;;;;;;;23.29;55.11;99414.56;2081531;28;19928;-46
2022/06/08 02:19:32;;;;;;;;;;;;;;;23.30;55.15;99419.03;2079014;28;20238;-46
2022/06/08 02:20:33;;;;;;;;;;;;;;;23.29;55.20;99423.66;2078855;28;19983;-46
2022/06/08 02:21:42;;;;;;;;;;;;;;;23.29;55.20;99412.66;2085260;28;20244;-46
2022/06/08 02:22:47;;;;;;;;;;;;;;;23.30;55.18;99413.53;2078454;28;19916;-46
2022/06/08 02:23:56;;;;;;;;;;;;;;;23.30;55.11;99413.53;2085799;28;20289;-45
2022/06/08 02:24:57;;;;;;;;;;;;;;;23.30;55.07;99408.03;2080797;28;20783;-46
2022/06/08 02:26:01;;;;;;;;;;;;;;;23.30;55.16;99405.28;2078110;28;19909;-46
2022/06/08 02:27:04;;;;;;;;;;;;;;;23.31;55.06;99409.72;2087343;28;20282;-45
2022/06/08 02:28:07;;;;;;;;;;;;;;;23.29;55.07;99409.91;2082599;28;19916;-48
2022/06/08 02:29:10;;;;;;;;;;;;;;;23.30;54.99;99408.03;2086069;28;19963;-46
2022/06/08 02:30:13;;;;;;;;;;;;;;;23.31;55.02;99412.47;2092108;28;19923;-46
2022/06/08 02:31:20;;;;;;;;;;;;;;;23.30;55.19;99413.53;2091869;28;20877;-46
2022/06/08 02:35:07;;;;;;;;;;;;;;;23.30;55.18;99402.53;2080968;28;20334;-49
2022/06/08 02:36:36;;;;;;;;;;;;;;;23.29;55.28;99404.41;2080440;28;19920;-48
2022/06/08 02:37:37;;;;;;;;;;;;;;;23.29;55.07;99406.31;2073509;28;19916;-47
2022/06/08 02:38:40;;;;;;;;;;;;;;;23.29;55.30;99407.16;2078115;28;20275;-48
2022/06/08 02:39:43;;;;;;;;;;;;;;;23.29;55.15;99403.56;2080475;28;19916;-48
2022/06/08 02:40:46;;;;;;;;;;;;;;;23.28;55.09;99404.63;2078925;28;19909;-47
2022/06/08 02:41:50;;;;;;;;;;;;;;;23.28;55.09;99404.63;2079259;28;19917;-45
2022/06/08 02:43:02;;;;;;;;;;;;;;;23.28;55.19;99412.88;2080144;28;19940;-46
2022/06/08 02:44:06;;;;;;;;;;;;;;;23.28;55.25;99410.13;2077216;28;19928;-47
2022/06/08 02:45:13;;;;;;;;;;;;;;;23.27;55.26;99411.16;2080559;28;19912;-45
2022/06/08 02:46:19;;;;;;;;;;;;;;;23.28;55.16;99410.97;2087748;28;19916;-47
2022/06/08 02:47:29;;;;;;;;;;;;;;;23.27;55.24;99412.03;2084266;28;20843;-45
2022/06/08 02:48:32;;;;;;;;;;;;;;;23.27;55.13;99411.16;2084196;28;20334;-47
2022/06/08 02:49:34;;;;;;;;;;;;;;;23.27;55.17;99409.28;2077426;28;20003;-46
2022/06/08 02:50:34;;;;;;;;;;;;;;;23.27;55.16;99413.91;2088139;28;19951;-46
2022/06/08 02:51:35;;;;;;;;;;;;;;;23.27;55.16;99408.41;2084099;28;20282;-46
2022/06/08 02:52:36;;;;;;;;;;;;;;;23.27;55.13;99408.41;2083532;28;19978;-46
2022/06/08 02:53:36;;;;;;;;;;;;;;;23.27;55.02;99411.16;2095159;28;20421;-46
2022/06/08 02:54:37;;;;;;;;;;;;;;;23.27;55.14;99409.28;2088451;28;20296;-45
2022/06/08 02:56:00;;;;;;;;;;;;;;;23.27;55.25;99409.28;2088520;28;20733;-46
2022/06/08 02:57:20;;;;;;;;;;;;;;;23.26;55.29;99404.81;2068366;28;19909;-47
2022/06/08 02:58:24;;;;;;;;;;;;;;;23.27;55.18;99408.41;2075960;28;19952;-46
2022/06/08 02:59:34;;;;;;;;;;;;;;;23.28;55.03;99399.13;2077212;28;19917;-45
2022/06/08 03:00:36;;;;;;;;;;;;;;;23.27;55.28;99394.66;2077611;28;19916;-46
2022/06/08 03:01:40;;;;;;;;;;;;;;;23.28;55.19;99399.13;2076969;28;19937;-47
2022/06/08 03:02:40;;;;;;;;;;;;;;;23.27;55.18;99392.78;2079613;28;20522;-47
2022/06/08 03:03:49;;;;;;;;;;;;;;;23.27;55.18;99397.41;2076613;28;19916;-44
2022/06/08 03:04:54;;;;;;;;;;;;;;;23.28;55.18;99399.13;2078862;28;20809;-47
2022/06/08 03:06:04;;;;;;;;;;;;;;;23.27;55.17;99395.53;2084682;28;20487;-47
2022/06/08 03:07:12;;;;;;;;;;;;;;;23.26;55.14;99391.06;2076826;28;19988;-45
2022/06/08 03:08:21;;;;;;;;;;;;;;;23.27;55.17;99387.28;2077626;28;19905;-48
2022/06/08 03:09:22;;;;;;;;;;;;;;;23.27;55.07;99389.16;2077390;28;19970;-46
2022/06/08 03:10:25;;;;;;;;;;;;;;;23.27;55.20;99380.91;2078092;28;19959;-47
2022/06/08 03:11:26;;;;;;;;;;;;;;;23.26;55.19;99382.81;2077324;28;20027;-46
2022/06/08 03:12:30;;;;;;;;;;;;;;;23.27;55.24;99380.91;2085586;28;20164;-45
2022/06/08 03:13:33;;;;;;;;;;;;;;;23.26;55.31;99376.47;2091734;28;19912;-46
2022/06/08 03:14:33;;;;;;;;;;;;;;;23.26;55.20;99379.22;2086399;28;19944;-46
2022/06/08 03:15:34;;;;;;;;;;;;;;;23.25;55.19;99377.50;2084902;28;19966;-48
2022/06/08 03:16:36;;;;;;;;;;;;;;;23.25;55.29;99388.50;2085896;28;20212;-46
2022/06/08 03:17:38;;;;;;;;;;;;;;;23.25;55.22;99383.00;2084864;28;20299;-47
2022/06/08 03:18:39;;;;;;;;;;;;;;;23.25;55.24;99380.25;2084781;28;19951;-46
2022/06/08 03:19:39;;;;;;;;;;;;;;;23.25;55.16;99380.25;2085577;28;20420;-46
2022/06/08 03:20:39;;;;;;;;;;;;;;;23.25;55.21;99383.00;2085939;28;19917;-46
2022/06/08 03:21:40;;;;;;;;;;;;;;;23.24;55.15;99376.66;2088830;28;19923;-48
2022/06/08 03:22:40;;;;;;;;;;;;;;;23.25;55.08;99383.00;2075670;28;20321;-45
2022/06/08 03:23:40;;;;;;;;;;;;;;;23.24;55.06;99382.16;2079557;28;20868;-47
2022/06/08 03:24:41;;;;;;;;;;;;;;;23.24;55.19;99389.56;2087647;28;20315;-46
2022/06/08 03:25:41;;;;;;;;;;;;;;;23.24;55.16;99392.31;2083342;28;19923;-46
2022/06/08 03:26:44;;;;;;;;;;;;;;;23.24;55.29;99393.16;2087064;28;20373;-46
2022/06/08 03:27:45;;;;;;;;;;;;;;;23.25;55.06;99394.00;2076797;28;20489;-45
2022/06/08 03:28:46;;;;;;;;;;;;;;;23.24;55.07;99393.16;2076892;28;20336;-50
2022/06/08 03:29:46;;;;;;;;;;;;;;;23.25;55.12;99399.50;2078083;28;19990;-46
2022/06/08 03:30:47;;;;;;;;;;;;;;;23.24;55.14;99392.31;2083156;28;20262;-46
2022/06/08 03:31:47;;;;;;;;;;;;;;;23.25;55.20;99394.00;2085814;28;19923;-46
2022/06/08 03:32:47;;;;;;;;;;;;;;;23.24;55.16;99390.41;2075599;28;19913;-46
2022/06/08 03:33:48;;;;;;;;;;;;;;;23.25;55.01;99391.25;2077362;28;20073;-48
2022/06/08 03:34:48;;;;;;;;;;;;;;;23.25;55.16;99394.00;2078743;28;20027;-45
2022/06/08 03:35:48;;;;;;;;;;;;;;;23.25;55.12;99392.13;2084400;28;20314;-45
2022/06/08 03:36:49;;;;;;;;;;;;;;;23.24;55.25;99389.56;2083658;28;19952;-48
2022/06/08 03:37:49;;;;;;;;;;;;;;;23.24;55.08;99390.41;2077651;28;20334;-46
2022/06/08 03:38:49;;;;;;;;;;;;;;;23.25;55.07;99391.25;2079462;28;19947;-45
2022/06/08 03:39:49;;;;;;;;;;;;;;;23.24;55.06;99386.81;2079319;28;20681;-46
2022/06/08 03:40:50;;;;;;;;;;;;;;;23.24;55.13;99384.06;2078028;28;20388;-45
2022/06/08 03:41:50;;;;;;;;;;;;;;;23.25;55.29;99385.75;2079696;28;19966;-47
2022/06/08 03:42:51;;;;;;;;;;;;;;;23.24;55.12;99384.91;2080020;28;19917;-46
2022/06/08 03:43:51;;;;;;;;;;;;;;;23.24;55.13;99375.81;2076932;28;19984;-47
2022/06/08 03:44:51;;;;;;;;;;;;;;;23.25;55.06;99388.50;2080368;28;20111;-45
2022/06/08 03:45:57;;;;;;;;;;;;;;;23.24;55.08;99386.81;2079644;28;20654;-45
2022/06/08 03:47:03;;;;;;;;;;;;;;;23.24;55.03;99393.16;2077879;28;19912;-48
2022/06/08 03:48:05;;;;;;;;;;;;;;;23.24;55.20;99386.81;2083547;28;19908;-46
2022/06/08 03:49:07;;;;;;;;;;;;;;;23.25;55.18;99388.50;2086581;28;19904;-46
2022/06/08 03:50:09;;;;;;;;;;;;;;;23.24;55.28;99392.31;2083396;28;20570;-49
2022/06/08 03:51:10;;;;;;;;;;;;;;;23.23;55.06;99385.97;2083379;28;20489;-48
2022/06/08 03:52:14;;;;;;;;;;;;;;;23.24;55.32;99384.06;2086417;28;20825;-46
2022/06/08 03:53:18;;;;;;;;;;;;;;;23.24;55.31;99384.06;2089714;28;19938;-46
2022/06/08 03:54:21;;;;;;;;;;;;;;;23.23;55.18;99387.88;2090315;28;19977;-45
2022/06/08 03:55:22;;;;;;;;;;;;;;;23.24;55.28;99386.81;2094570;28;19916;-46
2022/06/08 03:56:24;;;;;;;;;;;;;;;23.21;55.21;99385.31;2085960;28;19916;-48
2022/06/08 03:57:24;;;;;;;;;;;;;;;23.21;55.17;99382.56;2086678;28;19912;-46
2022/06/08 03:58:25;;;;;;;;;;;;;;;23.21;55.21;99377.06;2083738;28;19920;-47
2022/06/08 03:59:25;;;;;;;;;;;;;;;23.21;55.11;99384.47;2084803;28;19959;-46
2022/06/08 04:00:26;;;;;;;;;;;;;;;23.21;55.23;99384.47;2085285;28;19913;-47
2022/06/08 04:01:27;;;;;;;;;;;;;;;23.21;55.26;99381.72;2089103;28;19916;-45
2022/06/08 04:02:28;;;;;;;;;;;;;;;23.21;55.14;99388.03;2091190;28;19920;-46
2022/06/08 04:03:28;;;;;;;;;;;;;;;23.21;55.29;99384.47;2085665;28;20314;-45
2022/06/08 04:04:29;;;;;;;;;;;;;;;23.21;55.14;99381.72;2084007;28;19920;-48
2022/06/08 04:05:29;;;;;;;;;;;;;;;23.21;55.04;99381.72;2085920;28;19920;-46
2022/06/08 04:06:29;;;;;;;;;;;;;;;23.21;55.26;99381.72;2090765;28;20596;-45
2022/06/08 04:07:30;;;;;;;;;;;;;;;23.21;55.07;99382.56;2089604;28;19925;-46
2022/06/08 04:08:31;;;;;;;;;;;;;;;23.21;55.15;99387.22;2085504;28;19940;-45
2022/06/08 04:09:31;;;;;;;;;;;;;;;23.21;55.27;99381.72;2084992;28;20361;-49
2022/06/08 04:10:32;;;;;;;;;;;;;;;23.22;55.24;99375.16;2084231;28;19920;-46
2022/06/08 04:11:32;;;;;;;;;;;;;;;23.20;55.16;99379.97;2086238;28;19916;-47
2022/06/08 04:12:33;;;;;;;;;;;;;;;23.22;55.10;99386.16;2080516;28;19924;-46
2022/06/08 04:13:33;;;;;;;;;;;;;;;23.22;55.17;99372.41;2078429;28;19939;-46
2022/06/08 04:14:33;;;;;;;;;;;;;;;23.21;55.23;99373.47;2090171;28;19970;-46
2022/06/08 04:15:43;;;;;;;;;;;;;;;23.22;55.08;99381.50;2090202;28;20325;-45
2022/06/08 04:16:43;;;;;;;;;;;;;;;23.21;55.06;99381.72;2085397;28;19923;-45
2022/06/08 04:17:43;;;;;;;;;;;;;;;23.21;55.23;99381.72;2083821;28;19915;-45
2022/06/08 04:18:44;;;;;;;;;;;;;;;23.21;55.19;99381.72;2083783;28;19919;-46
2022/06/08 04:19:47;;;;;;;;;;;;;;;23.21;55.17;99382.56;2085562;28;20018;-48
2022/06/08 04:20:51;;;;;;;;;;;;;;;23.20;55.19;99379.97;2085265;28;20386;-45
2022/06/08 04:21:51;;;;;;;;;;;;;;;23.21;55.14;99385.31;2087592;28;20238;-47
2022/06/08 04:22:51;;;;;;;;;;;;;;;23.20;55.17;99386.34;2089880;28;19950;-46
2022/06/08 04:23:52;;;;;;;;;;;;;;;23.21;55.29;99384.47;2089518;28;20010;-46
2022/06/08 04:24:53;;;;;;;;;;;;;;;23.20;55.19;99385.47;2078123;28;20110;-45
2022/06/08 04:25:53;;;;;;;;;;;;;;;23.20;55.20;99382.72;2076042;28;20281;-46
2022/06/08 04:26:53;;;;;;;;;;;;;;;23.20;55.25;99379.97;2077063;28;19916;-45
2022/06/08 04:27:54;;;;;;;;;;;;;;;23.20;55.19;99386.34;2076941;28;19913;-46
2022/06/08 04:28:54;;;;;;;;;;;;;;;23.20;55.11;99385.47;2076886;28;20464;-46
2022/06/08 04:29:55;;;;;;;;;;;;;;;23.19;55.19;99384.63;2079668;28;19913;-46
2022/06/08 04:30:55;;;;;;;;;;;;;;;23.20;55.17;99380.84;2084327;28;19912;-47
2022/06/08 04:31:55;;;;;;;;;;;;;;;23.19;55.12;99379.13;2086359;28;19913;-45
2022/06/08 04:32:56;;;;;;;;;;;;;;;23.19;55.23;99378.28;2087408;28;19905;-45
2022/06/08 04:33:56;;;;;;;;;;;;;;;23.19;55.39;99375.53;2080802;28;19921;-46
2022/06/08 04:34:57;;;;;;;;;;;;;;;23.19;55.24;99379.13;2078206;28;19913;-46
2022/06/08 04:35:58;;;;;;;;;;;;;;;23.19;55.25;99386.53;2079780;28;19958;-46
2022/06/08 04:36:59;;;;;;;;;;;;;;;23.18;55.26;99388.44;2082703;28;20010;-46
2022/06/08 04:37:59;;;;;;;;;;;;;;;23.18;55.29;99387.59;2078299;28;19924;-47
2022/06/08 04:38:59;;;;;;;;;;;;;;;23.19;55.18;99381.03;2081961;28;19963;-47
2022/06/08 04:40:00;;;;;;;;;;;;;;;23.18;55.28;99382.09;2072895;28;19916;-47
2022/06/08 04:41:01;;;;;;;;;;;;;;;23.18;55.06;99380.19;2069506;28;19924;-46
2022/06/08 04:42:03;;;;;;;;;;;;;;;23.18;55.25;99382.09;2084949;28;19924;-46
2022/06/08 04:43:03;;;;;;;;;;;;;;;23.18;55.09;99379.34;2082972;28;19931;-46
2022/06/08 04:44:04;;;;;;;;;;;;;;;23.18;55.17;99384.84;2076348;28;19931;-47
2022/06/08 04:45:05;;;;;;;;;;;;;;;23.20;55.24;99388.22;2083684;28;19916;-47
2022/06/08 04:46:06;;;;;;;;;;;;;;;23.19;55.13;99384.63;2085779;28;20255;-48
2022/06/08 04:47:08;;;;;;;;;;;;;;;23.19;55.19;99383.78;2087923;28;20541;-46
2022/06/08 04:48:08;;;;;;;;;;;;;;;23.19;55.09;99383.78;2085750;28;19908;-46
2022/06/08 04:49:08;;;;;;;;;;;;;;;23.19;55.16;99389.28;2081988;28;19975;-46
2022/06/08 04:50:09;;;;;;;;;;;;;;;23.19;55.21;99384.63;2086633;28;20239;-45
2022/06/08 04:51:10;;;;;;;;;;;;;;;23.19;55.17;99378.28;2075909;28;19966;-46
2022/06/08 04:52:10;;;;;;;;;;;;;;;23.19;55.04;99378.28;2077973;28;20370;-46
2022/06/08 04:53:11;;;;;;;;;;;;;;;23.19;55.14;99372.78;2080821;28;20014;-46
2022/06/08 04:54:11;;;;;;;;;;;;;;;23.19;55.04;99381.03;2079913;28;19959;-46
2022/06/08 04:55:13;;;;;;;;;;;;;;;23.18;55.09;99380.19;2081834;28;19928;-46
2022/06/08 04:56:13;;;;;;;;;;;;;;;23.18;55.19;99371.09;2084290;28;20250;-48
2022/06/08 04:57:14;;;;;;;;;;;;;;;23.18;55.19;99382.94;2095577;28;19981;-45
2022/06/08 04:58:14;;;;;;;;;;;;;;;23.18;55.21;99376.59;2087743;28;20024;-45
2022/06/08 04:59:14;;;;;;;;;;;;;;;23.18;55.17;99377.44;2084676;28;19951;-47
2022/06/08 05:00:17;;;;;;;;;;;;;;;23.18;55.11;99379.34;2087331;28;19913;-49
2022/06/08 05:01:17;;;;;;;;;;;;;;;23.18;55.10;99379.34;2085485;28;20313;-47
2022/06/08 05:03:36;;;;;;;;;;;;;;;23.18;55.14;99379.34;2080539;28;19913;-47
2022/06/08 05:04:37;;;;;;;;;;;;;;;23.17;55.19;99381.22;2081582;28;19908;-48
2022/06/08 05:05:38;;;;;;;;;;;;;;;23.17;55.20;99374.88;2087452;28;20217;-45
2022/06/08 05:06:39;;;;;;;;;;;;;;;23.17;55.26;99380.38;2095232;28;20277;-45
2022/06/08 05:07:39;;;;;;;;;;;;;;;23.18;55.22;99382.09;2088943;28;19924;-49
2022/06/08 05:08:40;;;;;;;;;;;;;;;23.16;55.31;99381.44;2087605;28;19923;-45
2022/06/08 05:09:41;;;;;;;;;;;;;;;23.17;55.31;99380.38;2084553;28;20000;-47
2022/06/08 05:10:41;;;;;;;;;;;;;;;23.16;55.36;99385.03;2084686;28;20345;-45
2022/06/08 05:11:41;;;;;;;;;;;;;;;23.16;55.33;99382.28;2094336;28;19916;-45
2022/06/08 05:12:42;;;;;;;;;;;;;;;23.16;55.19;99384.19;2082663;28;19919;-46
2022/06/08 05:13:42;;;;;;;;;;;;;;;23.16;55.17;99384.19;2079831;28;19959;-45
2022/06/08 05:14:42;;;;;;;;;;;;;;;23.16;55.26;99384.19;2092941;28;19987;-46
2022/06/08 05:15:43;;;;;;;;;;;;;;;23.16;55.23;99381.44;2093595;28;19920;-46
2022/06/08 05:16:44;;;;;;;;;;;;;;;23.15;55.22;99383.34;2098131;28;19927;-46
2022/06/08 05:17:44;;;;;;;;;;;;;;;23.15;55.13;99383.34;2092356;28;19914;-47
2022/06/08 05:18:45;;;;;;;;;;;;;;;23.15;55.13;99377.84;2091934;28;19914;-45
2022/06/08 05:19:45;;;;;;;;;;;;;;;23.16;55.13;99382.28;2087440;28;19915;-46
2022/06/08 05:20:45;;;;;;;;;;;;;;;23.15;55.19;99382.47;2090398;28;19942;-45
2022/06/08 05:21:46;;;;;;;;;;;;;;;23.16;55.19;99385.03;2095104;28;19919;-46
2022/06/08 05:22:46;;;;;;;;;;;;;;;23.15;55.07;99376.97;2094346;28;19975;-48
2022/06/08 05:23:47;;;;;;;;;;;;;;;23.17;55.11;99385.88;2092881;28;20006;-45
2022/06/08 05:24:49;;;;;;;;;;;;;;;23.16;55.19;99384.19;2093183;28;19923;-46
2022/06/08 05:25:49;;;;;;;;;;;;;;;23.15;55.05;99387.97;2095288;28;19912;-47
2022/06/08 05:26:50;;;;;;;;;;;;;;;23.17;55.13;99399.63;2084742;28;20429;-45
2022/06/08 05:27:50;;;;;;;;;;;;;;;23.17;55.07;99394.13;2083817;28;19916;-45
2022/06/08 05:28:50;;;;;;;;;;;;;;;23.16;55.05;99392.44;2095643;28;19947;-45
2022/06/08 05:29:51;;;;;;;;;;;;;;;23.15;55.17;99388.84;2092901;28;20019;-46
2022/06/08 05:30:51;;;;;;;;;;;;;;;23.16;55.05;99385.03;2095012;28;20206;-45
2022/06/08 05:31:51;;;;;;;;;;;;;;;23.15;55.23;99388.84;2092367;28;19927;-46